SBPS

Details ICAO SBPS (BPS)
Name Porto Seguro
Region Brazil
Timezone America/Bahia (UTC-3.0)
Plans Departing 58
Arriving 66
Stats Elevation 168 ft / 51 m (AMSL)
Location -16.438625° -39.080917°
Runways 1
Magnetic Variation 23.868° W
Sunrise 2017-12-15 07:59:56 UTC / 2017-12-15 04:59:56 Local
Sunset 2017-12-15 21:05:55 UTC / 2017-12-15 18:05:55 Local
Advertisement - Login to hide

Runways

ID Width Length Bearing (true) Bearing (mag) Surface Threshold Offset Overrun Length
10 148 ft / 45 m 6,532 ft / 1,991 m 74.06° 97.93° Asphalt 0 ft / 0 m 195 ft / 59 m
28 148 ft / 45 m 6,532 ft / 1,991 m 254.06° 277.93° Asphalt 0 ft / 0 m 0 ft / 0 m

Map

Weather


0- 5 10 15 20 25 30 35+ Temperature / ° C

Clouds and Precipitation
Forecast for 2017-12-16 06:00 UTC. Updated an hour ago

Ground ~20,000 ft ~40,000 ft Winds

METAR

SBPS 160200Z 05005KT 9999 SCT013 BKN080 25/24 Q1015

TAF

TAF SBPS 151500Z 1518/1618 11004KT 8000 SCT020 SCT040 TN23/1608Z TX28/1615Z TEMPO 1608/1610 5000 SHRA BKN015 RMK PEA

Frequencies

Tower 118.20 MHz TWR
Warning: Do not use this data for real-world aviation or navigation. No guarantee of current accuracy is given.